Em Athens — V7US8 — position and weather

sailwx.info

Track history (hours):
 
Tides and Currents Weather Stations Pressure Air Temp Water Temp Dewpoint Dewpoint Depression Visibility Wind Speed Wind Dir Waves Ship Positions

Em Athens

Last reported at 2017-Feb-26 06:33 UTC. Time now 2017-Feb-26 07:39 UTC.
Position N 31°52' E 034°36'.

Length 207 m; draft 9.5 m.

Type: Ship (hazmat cat C). MMSI: 538004019.

Date/timePositionNaut miles runAvg speedWind from/ knotsBaromVisibWave heightAir tempDewpointWater temp
2017-Feb-26 06:33N 31°52' E 034°36'23 7.6
2017-Feb-26 03:30N 32°00' E 034°10'1414.3
2017-Feb-26 02:33N 32°06' E 033°55'1313.1
2017-Feb-26 01:33N 32°04' E 033°40'1413.7
2017-Feb-26 00:33N 31°60' E 033°24'1414.0
2017-Feb-25 23:34N 31°55' E 033°09'2814.0
2017-Feb-25 21:33N 31°43' E 032°39'2611.6
2017-Feb-25 19:18N 31°21' E 032°23'6 7.6
2017-Feb-25 18:34N 31°16' E 032°19'122 5.8
2017-Feb-24 21:26N 31°21' E 029°57'  
2017-Feb-22 03:18N 37°42' E 015°56'1716.5
2017-Feb-22 02:18N 37°51' E 015°38'1114.8
2017-Feb-22 01:33N 38°01' E 015°32'1716.7
2017-Feb-22 00:33N 38°16' E 015°40'1414.1
2017-Feb-21 23:32N 38°27' E 015°53'1 0.6
2017-Feb-21 21:21N 38°28' E 015°54'0 0.0
2017-Feb-21 20:33N 38°28' E 015°54'0 0.0
2017-Feb-21 19:33N 38°28' E 015°54'0 0.0
2017-Feb-21 18:33N 38°28' E 015°54'0 0.0
2017-Feb-21 17:30N 38°28' E 015°54'0 0.0
2017-Feb-21 14:27N 38°28' E 015°54'0 0.0
2017-Feb-21 13:33N 38°28' E 015°54'0 0.0
2017-Feb-21 12:33N 38°28' E 015°54'0 0.0
2017-Feb-21 11:33N 38°28' E 015°54'0 0.0
2017-Feb-21 10:33N 38°28' E 015°54'0 0.0
2017-Feb-21 09:33N 38°28' E 015°54'0 0.0
2017-Feb-21 08:33N 38°28' E 015°54'0 0.0
2017-Feb-21 07:33N 38°28' E 015°54'0 0.0
2017-Feb-21 06:33N 38°28' E 015°54'0 0.0
2017-Feb-21 05:33N 38°28' E 015°54'0 0.1
2017-Feb-21 04:33N 38°28' E 015°54'0 0.0
2017-Feb-21 03:33N 38°28' E 015°54'0 0.0
2017-Feb-21 02:33N 38°28' E 015°54'0 0.0
2017-Feb-21 01:33N 38°28' E 015°54'0 0.0
2017-Feb-21 00:33N 38°28' E 015°54'0 0.0
2017-Feb-20 23:30N 38°28' E 015°54'0 0.0
2017-Feb-20 22:33N 38°28' E 015°54'0 0.0
2017-Feb-20 17:33N 38°28' E 015°54'1 0.7
2017-Feb-20 16:33N 38°27' E 015°54'3 3.1
2017-Feb-20 15:33N 38°26' E 015°50'1 1.2
2017-Feb-20 14:33N 38°27' E 015°49'1 0.8
2017-Feb-20 13:33N 38°28' E 015°49'2 1.5
2017-Feb-20 12:34N 38°29' E 015°49'9 8.9
2017-Feb-20 11:33N 38°36' E 015°41'4 3.7
2017-Feb-20 10:33N 38°38' E 015°37'1 0.6
2017-Feb-20 09:33N 38°37' E 015°37'1 0.6
2017-Feb-20 08:33N 38°37' E 015°37'1 0.7
2017-Feb-20 07:33N 38°36' E 015°37'1 0.7
2017-Feb-20 06:33N 38°35' E 015°37'1 0.5
2017-Feb-20 05:33N 38°35' E 015°37'1 0.5
2017-Feb-20 04:33N 38°34' E 015°37'0 0.5
2017-Feb-20 03:31N 38°34' E 015°37'0 0.4
2017-Feb-20 02:33N 38°33' E 015°37'0 0.3
2017-Feb-20 01:34N 38°33' E 015°37'0 0.2
2017-Feb-20 00:33N 38°33' E 015°38'0 0.1
2017-Feb-19 23:29N 38°33' E 015°38'0 0.2
2017-Feb-19 22:33N 38°33' E 015°38'0 0.3
2017-Feb-19 21:30N 38°33' E 015°38'0 0.4
2017-Feb-19 20:32N 38°33' E 015°39'1 0.6
2017-Feb-19 19:32N 38°33' E 015°40'7 7.5
2017-Feb-19 18:33N 38°26' E 015°42'5 4.7
2017-Feb-19 17:33N 38°24' E 015°37'1212.0
2017-Feb-19 16:33N 38°21' E 015°22'1312.6
2017-Feb-19 15:33N 38°18' E 015°06'1211.8
2017-Feb-19 14:33N 38°18' E 014°51'1212.2
2017-Feb-19 13:33N 38°20' E 014°36'3712.3
2017-Feb-19 10:32N 38°25' E 013°49'1313.3
2017-Feb-19 09:33N 38°27' E 013°33'1313.1
2017-Feb-19 08:33N 38°29' E 013°16'  
2017-Feb-16 15:29N 35°60' W 005°09'1415.4
2017-Feb-16 14:33N 35°57' W 005°26'  
Track history (hours):
 
Tides and Currents Weather Stations Pressure Air Temp Water Temp Dewpoint Dewpoint Depression Visibility Wind Speed Wind Dir Waves Ship Positions

Em Athens

Last reported at 2017-Feb-26 06:33 UTC. Time now 2017-Feb-26 07:39 UTC.
Position N 31°52' E 034°36'.

Length 207 m; draft 9.5 m.

Type: Ship (hazmat cat C). MMSI: 538004019.

Date/timePositionNaut miles runAvg speedWind from/ knotsBaromVisibWave heightAir tempDewpointWater temp
2017-Feb-26 06:33N 31°52' E 034°36'23 7.6
2017-Feb-26 03:30N 32°00' E 034°10'1414.3
2017-Feb-26 02:33N 32°06' E 033°55'1313.1
2017-Feb-26 01:33N 32°04' E 033°40'1413.7
2017-Feb-26 00:33N 31°60' E 033°24'1414.0
2017-Feb-25 23:34N 31°55' E 033°09'2814.0
2017-Feb-25 21:33N 31°43' E 032°39'2611.6
2017-Feb-25 19:18N 31°21' E 032°23'6 7.6
2017-Feb-25 18:34N 31°16' E 032°19'122 5.8
2017-Feb-24 21:26N 31°21' E 029°57'  
2017-Feb-22 03:18N 37°42' E 015°56'1716.5
2017-Feb-22 02:18N 37°51' E 015°38'1114.8
2017-Feb-22 01:33N 38°01' E 015°32'1716.7
2017-Feb-22 00:33N 38°16' E 015°40'1414.1
2017-Feb-21 23:32N 38°27' E 015°53'1 0.6
2017-Feb-21 21:21N 38°28' E 015°54'0 0.0
2017-Feb-21 20:33N 38°28' E 015°54'0 0.0
2017-Feb-21 19:33N 38°28' E 015°54'0 0.0
2017-Feb-21 18:33N 38°28' E 015°54'0 0.0
2017-Feb-21 17:30N 38°28' E 015°54'0 0.0
2017-Feb-21 14:27N 38°28' E 015°54'0 0.0
2017-Feb-21 13:33N 38°28' E 015°54'0 0.0
2017-Feb-21 12:33N 38°28' E 015°54'0 0.0
2017-Feb-21 11:33N 38°28' E 015°54'0 0.0
2017-Feb-21 10:33N 38°28' E 015°54'0 0.0
2017-Feb-21 09:33N 38°28' E 015°54'0 0.0
2017-Feb-21 08:33N 38°28' E 015°54'0 0.0
2017-Feb-21 07:33N 38°28' E 015°54'0 0.0
2017-Feb-21 06:33N 38°28' E 015°54'0 0.0
2017-Feb-21 05:33N 38°28' E 015°54'0 0.1
2017-Feb-21 04:33N 38°28' E 015°54'0 0.0
2017-Feb-21 03:33N 38°28' E 015°54'0 0.0
2017-Feb-21 02:33N 38°28' E 015°54'0 0.0
2017-Feb-21 01:33N 38°28' E 015°54'0 0.0
2017-Feb-21 00:33N 38°28' E 015°54'0 0.0
2017-Feb-20 23:30N 38°28' E 015°54'0 0.0
2017-Feb-20 22:33N 38°28' E 015°54'0 0.0
2017-Feb-20 17:33N 38°28' E 015°54'1 0.7
2017-Feb-20 16:33N 38°27' E 015°54'3 3.1
2017-Feb-20 15:33N 38°26' E 015°50'1 1.2
2017-Feb-20 14:33N 38°27' E 015°49'1 0.8
2017-Feb-20 13:33N 38°28' E 015°49'2 1.5
2017-Feb-20 12:34N 38°29' E 015°49'9 8.9
2017-Feb-20 11:33N 38°36' E 015°41'4 3.7
2017-Feb-20 10:33N 38°38' E 015°37'1 0.6
2017-Feb-20 09:33N 38°37' E 015°37'1 0.6
2017-Feb-20 08:33N 38°37' E 015°37'1 0.7
2017-Feb-20 07:33N 38°36' E 015°37'1 0.7
2017-Feb-20 06:33N 38°35' E 015°37'1 0.5
2017-Feb-20 05:33N 38°35' E 015°37'1 0.5
2017-Feb-20 04:33N 38°34' E 015°37'0 0.5
2017-Feb-20 03:31N 38°34' E 015°37'0 0.4
2017-Feb-20 02:33N 38°33' E 015°37'0 0.3
2017-Feb-20 01:34N 38°33' E 015°37'0 0.2
2017-Feb-20 00:33N 38°33' E 015°38'0 0.1
2017-Feb-19 23:29N 38°33' E 015°38'0 0.2
2017-Feb-19 22:33N 38°33' E 015°38'0 0.3
2017-Feb-19 21:30N 38°33' E 015°38'0 0.4
2017-Feb-19 20:32N 38°33' E 015°39'1 0.6
2017-Feb-19 19:32N 38°33' E 015°40'7 7.5
2017-Feb-19 18:33N 38°26' E 015°42'5 4.7
2017-Feb-19 17:33N 38°24' E 015°37'1212.0
2017-Feb-19 16:33N 38°21' E 015°22'1312.6
2017-Feb-19 15:33N 38°18' E 015°06'1211.8
2017-Feb-19 14:33N 38°18' E 014°51'1212.2
2017-Feb-19 13:33N 38°20' E 014°36'3712.3
2017-Feb-19 10:32N 38°25' E 013°49'1313.3
2017-Feb-19 09:33N 38°27' E 013°33'1313.1
2017-Feb-19 08:33N 38°29' E 013°16'  
2017-Feb-16 15:29N 35°60' W 005°09'1415.4
2017-Feb-16 14:33N 35°57' W 005°26'  

Dump ship's entire track history